createdAt,value
2022-11-25T00:01:18.581Z,99120.75
2022-11-25T00:03:45.730Z,99130.66
2022-11-25T00:06:20.744Z,99116.03
2022-11-25T00:08:49.732Z,99123.28
2022-11-25T00:11:16.911Z,99124.50
2022-11-25T00:13:44.970Z,99122.72
2022-11-25T00:16:14.941Z,99122.63
2022-11-25T00:18:46.283Z,99126.66
2022-11-25T00:21:15.591Z,99120.75
2022-11-25T00:23:42.011Z,99112.91
2022-11-25T00:26:09.663Z,99114.00
2022-11-25T00:28:36.576Z,99114.09
2022-11-25T00:31:17.382Z,99111.56
2022-11-25T00:33:44.413Z,99100.56
2022-11-25T00:36:14.785Z,99103.63
2022-11-25T00:38:41.193Z,99104.88
2022-11-25T00:41:26.176Z,99094.03
2022-11-25T00:44:11.428Z,99094.13
2022-11-25T00:46:37.877Z,99090.22
2022-11-25T00:49:04.330Z,99087.94
2022-11-25T00:51:30.731Z,99080.03
2022-11-25T00:53:59.074Z,99088.03
2022-11-25T00:56:25.751Z,99080.22
2022-11-25T00:58:53.260Z,99086.88
2022-11-25T01:01:20.044Z,99093.53
2022-11-25T01:03:49.412Z,99087.69
2022-11-25T01:06:15.875Z,99087.75
2022-11-25T01:08:42.303Z,99090.31
2022-11-25T01:11:12.088Z,99094.09
2022-11-25T01:13:38.558Z,99085.50
2022-11-25T01:16:06.128Z,99092.56
2022-11-25T01:18:33.643Z,99089.78
2022-11-25T01:21:07.276Z,99083.22
2022-11-25T01:23:34.232Z,99084.91
2022-11-25T01:26:05.328Z,99085.16
2022-11-25T01:28:32.795Z,99080.06
2022-11-25T01:31:20.043Z,99084.50
2022-11-25T01:33:47.708Z,99082.91
2022-11-25T01:36:15.982Z,99084.28
2022-11-25T01:38:42.907Z,99085.28
2022-11-25T01:41:12.201Z,99080.19
2022-11-25T01:43:38.662Z,99082.72
2022-11-25T01:46:19.953Z,99091.63
2022-11-25T01:48:54.785Z,99089.78
2022-11-25T01:51:28.740Z,99084.88
2022-11-25T01:53:58.280Z,99086.25
2022-11-25T01:56:26.358Z,99082.22
2022-11-25T01:58:52.984Z,99078.88
2022-11-25T02:01:21.631Z,99080.00
2022-11-25T02:03:50.633Z,99078.00
2022-11-25T02:06:19.336Z,99083.69
2022-11-25T02:08:48.867Z,99078.78
2022-11-25T02:11:16.064Z,99073.09
2022-11-25T02:13:43.449Z,99071.53
2022-11-25T02:16:09.875Z,99063.06
2022-11-25T02:18:36.365Z,99069.16
2022-11-25T02:21:02.837Z,99068.16
2022-11-25T02:23:56.446Z,99062.19
2022-11-25T02:26:23.527Z,99066.63
2022-11-25T02:28:50.227Z,99059.63
2022-11-25T02:31:21.084Z,99059.16
2022-11-25T02:33:47.725Z,99060.72
2022-11-25T02:36:19.076Z,99049.56
2022-11-25T02:38:50.251Z,99051.03
2022-11-25T02:41:24.547Z,99047.78
2022-11-25T02:43:51.033Z,99053.94
2022-11-25T02:46:22.503Z,99050.50
2022-11-25T02:49:08.435Z,99048.66
2022-11-25T02:51:36.393Z,99032.50
2022-11-25T02:54:02.813Z,99035.84
2022-11-25T02:56:31.592Z,99027.38
2022-11-25T02:58:58.429Z,99030.94
2022-11-25T03:01:24.903Z,99042.00
2022-11-25T03:03:51.345Z,99032.13
2022-11-25T03:06:17.806Z,99037.41
2022-11-25T03:08:44.360Z,99032.13
2022-11-25T03:11:10.871Z,99034.84
2022-11-25T03:13:37.307Z,99036.63
2022-11-25T03:16:03.871Z,99041.63
2022-11-25T03:18:30.428Z,99039.00
2022-11-25T03:20:56.953Z,99043.56
2022-11-25T03:23:23.375Z,99042.69
2022-11-25T03:25:49.938Z,99041.91
2022-11-25T03:28:16.334Z,99041.72
2022-11-25T03:30:43.399Z,99045.16
2022-11-25T03:33:09.796Z,99036.69
2022-11-25T03:35:36.294Z,99042.69
2022-11-25T03:38:02.711Z,99044.44
2022-11-25T03:40:29.111Z,99054.84
2022-11-25T03:42:55.560Z,99061.69
2022-11-25T03:45:22.056Z,99056.41
2022-11-25T03:47:48.487Z,99066.22
2022-11-25T03:50:15.478Z,99057.00
2022-11-25T03:52:42.070Z,99060.63
2022-11-25T03:55:08.755Z,99057.31
2022-11-25T03:57:35.448Z,99066.81
2022-11-25T04:00:02.191Z,99065.22
2022-11-25T04:02:28.654Z,99062.66
2022-11-25T04:04:55.422Z,99066.09
2022-11-25T04:07:21.848Z,99066.09
2022-11-25T04:09:48.330Z,99067.16
2022-11-25T04:12:33.472Z,99063.53
2022-11-25T04:14:59.881Z,99065.03
2022-11-25T04:17:26.292Z,99057.66
2022-11-25T04:19:52.711Z,99065.38
2022-11-25T04:22:19.130Z,99069.81
2022-11-25T04:24:45.569Z,99063.66
2022-11-25T04:27:12.002Z,99077.34
2022-11-25T04:29:38.385Z,99071.97
2022-11-25T04:32:04.956Z,99072.44
2022-11-25T04:34:31.375Z,99074.81
2022-11-25T04:36:57.765Z,99078.25
2022-11-25T04:39:24.122Z,99077.72
2022-11-25T04:41:50.697Z,99096.56
2022-11-25T04:44:17.113Z,99091.66
2022-11-25T04:46:43.966Z,99094.78
2022-11-25T04:49:11.104Z,99089.00
2022-11-25T04:51:37.532Z,99100.25
2022-11-25T04:54:03.974Z,99102.22
2022-11-25T04:56:30.457Z,99099.66
2022-11-25T04:59:15.620Z,99103.97
2022-11-25T05:01:42.460Z,99109.25
2022-11-25T05:04:08.921Z,99110.16
2022-11-25T05:06:35.302Z,99117.03
2022-11-25T05:09:01.796Z,99112.78
2022-11-25T05:11:28.200Z,99113.66
2022-11-25T05:13:54.672Z,99122.31
2022-11-25T05:16:21.212Z,99120.59
2022-11-25T05:18:47.618Z,99130.91
2022-11-25T05:21:14.006Z,99130.03
2022-11-25T05:23:40.440Z,99134.41
2022-11-25T05:26:06.883Z,99130.22
2022-11-25T05:28:33.283Z,99133.75
2022-11-25T05:31:00.136Z,99144.13
2022-11-25T05:33:26.754Z,99137.25
2022-11-25T05:35:57.757Z,99147.66
2022-11-25T05:38:25.133Z,99145.19
2022-11-25T05:40:51.537Z,99141.00
2022-11-25T05:43:17.998Z,99141.59
2022-11-25T05:45:44.635Z,99144.50
2022-11-25T05:48:11.217Z,99142.13
2022-11-25T05:50:38.191Z,99151.56
2022-11-25T05:53:04.936Z,99143.13
2022-11-25T05:55:31.325Z,99152.50
2022-11-25T05:57:59.115Z,99151.72
2022-11-25T06:00:26.878Z,99158.69
2022-11-25T06:02:56.707Z,99148.59
2022-11-25T06:05:23.239Z,99158.06
2022-11-25T06:07:49.768Z,99160.56
2022-11-25T06:10:17.330Z,99158.97
2022-11-25T06:12:44.086Z,99167.59
2022-11-25T06:15:11.189Z,99168.47
2022-11-25T06:17:37.719Z,99178.00
2022-11-25T06:20:07.654Z,99178.84
2022-11-25T06:22:34.112Z,99181.50
2022-11-25T06:25:03.549Z,99185.03
2022-11-25T06:27:44.253Z,99192.69
2022-11-25T06:30:17.557Z,99186.78
2022-11-25T06:32:44.148Z,99186.69
2022-11-25T06:35:11.075Z,99185.19
2022-11-25T06:37:37.918Z,99192.97
2022-11-25T06:40:05.280Z,99186.19
2022-11-25T06:42:31.718Z,99201.59
2022-11-25T06:44:58.219Z,99199.13
2022-11-25T06:47:24.653Z,99205.03
2022-11-25T06:49:51.075Z,99210.31
2022-11-25T06:52:17.678Z,99210.31
2022-11-25T06:54:45.433Z,99207.75
2022-11-25T06:57:12.633Z,99200.19
2022-11-25T06:59:39.098Z,99211.38
2022-11-25T07:02:05.514Z,99214.81
2022-11-25T07:04:34.622Z,99214.22
2022-11-25T07:07:01.458Z,99216.75
2022-11-25T07:09:27.851Z,99219.91
2022-11-25T07:11:54.260Z,99216.94
2022-11-25T07:14:20.723Z,99225.59
2022-11-25T07:16:47.377Z,99220.38
2022-11-25T07:19:15.505Z,99229.88
2022-11-25T07:21:43.355Z,99224.72
2022-11-25T07:24:10.535Z,99220.56
2022-11-25T07:26:38.420Z,99223.69
2022-11-25T07:29:18.221Z,99235.56
2022-11-25T07:31:53.827Z,99238.13
2022-11-25T07:34:21.417Z,99237.50
2022-11-25T07:36:49.070Z,99239.25
2022-11-25T07:39:21.692Z,99248.16
2022-11-25T07:41:52.938Z,99248.09
2022-11-25T07:44:19.987Z,99247.28
2022-11-25T07:46:48.946Z,99256.22
2022-11-25T07:49:21.277Z,99261.38
2022-11-25T07:52:02.287Z,99254.72
2022-11-25T07:54:28.847Z,99265.09
2022-11-25T07:56:55.406Z,99275.16
2022-11-25T07:59:22.997Z,99278.66
2022-11-25T08:01:53.865Z,99280.63
2022-11-25T08:04:21.231Z,99287.47
2022-11-25T08:06:49.956Z,99292.78
2022-11-25T08:09:19.233Z,99291.19
2022-11-25T08:11:46.687Z,99295.09
2022-11-25T08:14:13.380Z,99303.72
2022-11-25T08:16:39.791Z,99303.09
2022-11-25T08:19:08.423Z,99295.63
2022-11-25T08:21:34.943Z,99303.72
2022-11-25T08:24:03.037Z,99308.31
2022-11-25T08:26:32.700Z,99312.03
2022-11-25T08:28:59.887Z,99324.00
2022-11-25T08:31:28.756Z,99324.19
2022-11-25T08:33:55.458Z,99326.31
2022-11-25T08:36:22.825Z,99324.00
2022-11-25T08:38:51.452Z,99333.72
2022-11-25T08:41:21.135Z,99333.09
2022-11-25T08:43:47.790Z,99337.41
2022-11-25T08:46:17.041Z,99342.13
2022-11-25T08:48:43.744Z,99341.34
2022-11-25T08:51:13.155Z,99341.50
2022-11-25T08:53:40.759Z,99342.41
2022-11-25T08:56:07.471Z,99342.47
2022-11-25T08:58:34.294Z,99346.97
2022-11-25T09:01:01.228Z,99346.06
2022-11-25T09:03:27.787Z,99351.56
2022-11-25T09:05:54.646Z,99352.63
2022-11-25T09:08:21.102Z,99358.81
2022-11-25T09:10:47.666Z,99362.31
2022-11-25T09:13:17.081Z,99356.31
2022-11-25T09:15:43.530Z,99361.44
2022-11-25T09:18:11.271Z,99362.47
2022-11-25T09:20:39.591Z,99371.31
2022-11-25T09:23:07.810Z,99375.88
2022-11-25T09:25:35.159Z,99382.94
2022-11-25T09:28:01.881Z,99382.78
2022-11-25T09:30:28.363Z,99387.19
2022-11-25T09:32:55.525Z,99379.41
2022-11-25T09:35:22.980Z,99385.41
2022-11-25T09:37:49.655Z,99398.19
2022-11-25T09:40:25.081Z,99391.59
2022-11-25T09:43:27.864Z,99408.09
2022-11-25T09:46:20.131Z,99401.31
2022-11-25T09:48:57.169Z,99400.59
2022-11-25T09:51:32.357Z,99407.81
2022-11-25T09:54:21.383Z,99419.09
2022-11-25T09:56:51.815Z,99411.66
2022-11-25T09:59:20.743Z,99412.66
2022-11-25T10:01:58.320Z,99417.84
2022-11-25T10:04:31.957Z,99424.38
2022-11-25T10:07:01.857Z,99428.84
2022-11-25T10:09:30.683Z,99436.72
2022-11-25T10:12:03.231Z,99438.31
2022-11-25T10:14:39.610Z,99436.06
2022-11-25T10:17:15.291Z,99445.53
2022-11-25T10:19:58.670Z,99445.47
2022-11-25T10:22:32.300Z,99444.41
2022-11-25T10:25:02.458Z,99445.63
2022-11-25T10:27:38.587Z,99445.53
2022-11-25T10:30:15.686Z,99460.38
2022-11-25T10:32:49.958Z,99455.31
2022-11-25T10:35:23.864Z,99456.31
2022-11-25T10:37:55.310Z,99454.69
2022-11-25T10:40:22.027Z,99451.34
2022-11-25T10:42:48.440Z,99454.31
2022-11-25T10:45:14.937Z,99468.16
2022-11-25T10:47:55.879Z,99463.03
2022-11-25T10:50:25.056Z,99467.53
2022-11-25T10:53:27.226Z,99466.50
2022-11-25T10:56:03.585Z,99470.03
2022-11-25T10:58:38.365Z,99469.47
2022-11-25T11:01:13.958Z,99463.63
2022-11-25T11:03:41.101Z,99459.81
2022-11-25T11:06:35.943Z,99466.41
2022-11-25T11:09:02.466Z,99462.31
2022-11-25T11:11:29.079Z,99467.59
2022-11-25T11:14:12.837Z,99468.50
2022-11-25T11:16:42.632Z,99471.13
2022-11-25T11:19:27.526Z,99479.63
2022-11-25T11:21:55.390Z,99482.38
2022-11-25T11:24:27.733Z,99480.75
2022-11-25T11:27:07.276Z,99482.84
2022-11-25T11:29:34.044Z,99485.09
2022-11-25T11:32:03.281Z,99484.44
2022-11-25T11:34:35.981Z,99494.03
2022-11-25T11:37:23.574Z,99483.63
2022-11-25T11:40:11.805Z,99499.00
2022-11-25T11:43:06.105Z,99495.28
2022-11-25T11:45:57.439Z,99499.69
2022-11-25T11:48:37.211Z,99503.38
2022-11-25T11:51:26.047Z,99507.97
2022-11-25T11:54:04.037Z,99505.56
2022-11-25T11:56:44.451Z,99509.19
2022-11-25T11:59:42.497Z,99510.13
2022-11-25T12:02:50.045Z,99512.84
2022-11-25T12:05:21.876Z,99514.31
2022-11-25T12:08:00.788Z,99514.56
2022-11-25T12:10:31.071Z,99520.75
2022-11-25T12:13:15.940Z,99521.84
2022-11-25T12:15:52.003Z,99523.31
2022-11-25T12:18:27.570Z,99522.63
2022-11-25T12:21:05.587Z,99535.56
2022-11-25T12:23:56.224Z,99527.88
2022-11-25T12:26:44.991Z,99539.81
2022-11-25T12:29:42.726Z,99535.31
2022-11-25T12:32:27.827Z,99539.56
2022-11-25T12:35:01.300Z,99540.44
2022-11-25T12:37:33.696Z,99544.38
2022-11-25T12:40:08.242Z,99545.44
2022-11-25T12:42:37.044Z,99546.31
2022-11-25T12:45:12.520Z,99542.69
2022-11-25T12:47:38.941Z,99556.56
2022-11-25T12:50:05.983Z,99553.59
2022-11-25T12:52:54.780Z,99556.41
2022-11-25T12:55:21.980Z,99568.53
2022-11-25T12:57:57.563Z,99573.81
2022-11-25T13:00:46.389Z,99578.31
2022-11-25T13:03:42.187Z,99578.88
2022-11-25T13:06:38.578Z,99580.63
2022-11-25T13:09:28.032Z,99584.00
2022-11-25T13:12:42.023Z,99582.41
2022-11-25T13:15:14.839Z,99586.66
2022-11-25T13:17:43.120Z,99587.53
2022-11-25T13:20:32.858Z,99607.00
2022-11-25T13:23:02.257Z,99607.00
2022-11-25T13:25:29.919Z,99616.66
2022-11-25T13:27:58.438Z,99616.03
2022-11-25T13:30:33.883Z,99621.16
2022-11-25T13:33:09.339Z,99614.41
2022-11-25T13:35:36.885Z,99624.66
2022-11-25T13:38:07.800Z,99626.28
2022-11-25T13:40:37.834Z,99627.88
2022-11-25T13:43:04.397Z,99630.69
2022-11-25T13:45:34.216Z,99627.34
2022-11-25T13:48:11.263Z,99634.94
2022-11-25T13:51:03.369Z,99632.22
2022-11-25T13:53:33.112Z,99641.84
2022-11-25T13:56:24.279Z,99636.56
2022-11-25T13:59:13.756Z,99643.78
2022-11-25T14:01:46.385Z,99645.53
2022-11-25T14:04:14.167Z,99652.75
2022-11-25T14:07:07.481Z,99658.19
2022-11-25T14:10:13.388Z,99651.72
2022-11-25T14:13:06.201Z,99668.56
2022-11-25T14:15:35.295Z,99674.34
2022-11-25T14:18:51.156Z,99682.03
2022-11-25T14:21:37.682Z,99685.94
2022-11-25T14:24:23.099Z,99692.50
2022-11-25T14:26:54.190Z,99687.38
2022-11-25T14:29:23.449Z,99702.06
2022-11-25T14:31:53.141Z,99702.59
2022-11-25T14:34:42.810Z,99701.03
2022-11-25T14:37:23.830Z,99697.56
2022-11-25T14:40:04.544Z,99705.09
2022-11-25T14:42:37.721Z,99703.22
2022-11-25T14:45:19.981Z,99705.31
2022-11-25T14:47:49.541Z,99713.75
2022-11-25T14:50:34.160Z,99713.84
2022-11-25T14:53:08.919Z,99719.78
2022-11-25T14:55:35.655Z,99711.97
2022-11-25T14:58:02.190Z,99717.81
2022-11-25T15:00:28.684Z,99711.13
2022-11-25T15:03:03.051Z,99713.31
2022-11-25T15:05:32.494Z,99718.72
2022-11-25T15:08:22.095Z,99710.91
2022-11-25T15:11:03.373Z,99708.13
2022-11-25T15:13:38.380Z,99724.03
2022-11-25T15:16:09.466Z,99724.03
2022-11-25T15:18:37.047Z,99734.28
2022-11-25T15:21:08.858Z,99742.78
2022-11-25T15:23:37.918Z,99745.19
2022-11-25T15:26:13.395Z,99745.44
2022-11-25T15:28:39.803Z,99752.25
2022-11-25T15:31:12.580Z,99758.28
2022-11-25T15:33:40.544Z,99752.88
2022-11-25T15:36:07.237Z,99761.97
2022-11-25T15:38:37.001Z,99766.94
2022-11-25T15:41:03.882Z,99767.88
2022-11-25T15:43:31.407Z,99772.06
2022-11-25T15:46:03.669Z,99774.81
2022-11-25T15:48:58.592Z,99774.97
2022-11-25T15:51:34.641Z,99777.53
2022-11-25T15:54:13.282Z,99779.38
2022-11-25T15:56:47.749Z,99778.69
2022-11-25T15:59:36.272Z,99774.28
2022-11-25T16:02:02.891Z,99780.09
2022-11-25T16:04:29.295Z,99782.41
2022-11-25T16:06:56.939Z,99781.34
2022-11-25T16:09:25.481Z,99795.41
2022-11-25T16:11:52.038Z,99797.78
2022-11-25T16:14:30.606Z,99803.69
2022-11-25T16:17:02.094Z,99802.63
2022-11-25T16:19:37.640Z,99813.31
2022-11-25T16:22:05.281Z,99812.53
2022-11-25T16:24:42.258Z,99817.28
2022-11-25T16:27:17.756Z,99829.94
2022-11-25T16:30:06.034Z,99828.16
2022-11-25T16:32:33.653Z,99833.59
2022-11-25T16:35:26.544Z,99837.16
2022-11-25T16:37:57.517Z,99845.84
2022-11-25T16:40:27.117Z,99850.63
2022-11-25T16:42:53.884Z,99851.75
2022-11-25T16:45:22.692Z,99850.69
2022-11-25T16:47:49.364Z,99850.75
2022-11-25T16:50:17.648Z,99860.91
2022-11-25T16:52:44.083Z,99871.34
2022-11-25T16:55:11.017Z,99878.72
2022-11-25T16:57:38.275Z,99879.31
2022-11-25T17:00:10.727Z,99882.97
2022-11-25T17:02:37.447Z,99871.25
2022-11-25T17:05:20.099Z,99880.78
2022-11-25T17:07:47.580Z,99890.78
2022-11-25T17:10:14.190Z,99892.25
2022-11-25T17:12:42.028Z,99896.69
2022-11-25T17:15:14.179Z,99897.09
2022-11-25T17:17:40.797Z,99897.88
2022-11-25T17:20:14.658Z,99891.25
2022-11-25T17:22:41.091Z,99901.50
2022-11-25T17:25:08.119Z,99910.28
2022-11-25T17:27:34.773Z,99919.22
2022-11-25T17:30:03.972Z,99915.91
2022-11-25T17:32:31.206Z,99922.38
2022-11-25T17:34:57.714Z,99924.56
2022-11-25T17:37:25.452Z,99923.47
2022-11-25T17:39:53.376Z,99926.59
2022-11-25T17:42:30.083Z,99927.63
2022-11-25T17:44:56.778Z,99930.75
2022-11-25T17:47:23.236Z,99938.81
2022-11-25T17:49:49.757Z,99941.06
2022-11-25T17:52:16.227Z,99931.53
2022-11-25T17:54:42.681Z,99944.50
2022-11-25T17:57:16.021Z,99953.06
2022-11-25T17:59:42.468Z,99954.34
2022-11-25T18:02:19.956Z,99956.09
2022-11-25T18:04:46.489Z,99959.16
2022-11-25T18:07:13.127Z,99970.88
2022-11-25T18:09:39.595Z,99979.44
2022-11-25T18:12:10.606Z,99997.03
2022-11-25T18:14:37.775Z,100004.50
2022-11-25T18:17:06.402Z,100015.31
2022-11-25T18:19:33.924Z,100010.31
2022-11-25T18:22:24.028Z,100009.94
2022-11-25T18:24:50.819Z,100022.22
2022-11-25T18:27:24.335Z,100018.31
2022-11-25T18:29:51.560Z,100022.34
2022-11-25T18:32:18.110Z,100022.41
2022-11-25T18:34:45.650Z,100031.19
2022-11-25T18:37:12.635Z,100027.53
2022-11-25T18:39:39.303Z,100032.84
2022-11-25T18:42:06.877Z,100038.78
2022-11-25T18:44:41.968Z,100042.13
2022-11-25T18:47:12.611Z,100047.81
2022-11-25T18:49:39.190Z,100061.81
2022-11-25T18:52:05.657Z,100065.22
2022-11-25T18:54:32.115Z,100072.47
2022-11-25T18:56:58.584Z,100071.69
2022-11-25T18:59:34.144Z,100082.69
2022-11-25T19:02:00.968Z,100084.84
2022-11-25T19:04:27.417Z,100090.03
2022-11-25T19:06:53.896Z,100080.50
2022-11-25T19:09:20.291Z,100084.47
2022-11-25T19:11:50.450Z,100079.56
2022-11-25T19:14:33.111Z,100086.56
2022-11-25T19:17:02.286Z,100092.16
2022-11-25T19:19:28.944Z,100089.84
2022-11-25T19:21:55.439Z,100104.31
2022-11-25T19:24:21.841Z,100106.28
2022-11-25T19:26:50.468Z,100113.06
2022-11-25T19:29:20.672Z,100116.84
2022-11-25T19:31:47.639Z,100118.53
2022-11-25T19:34:25.583Z,100127.19
2022-11-25T19:36:52.008Z,100124.53
2022-11-25T19:39:18.715Z,100121.66
2022-11-25T19:41:45.481Z,100126.88
2022-11-25T19:44:11.992Z,100137.34
2022-11-25T19:47:07.462Z,100147.25
2022-11-25T19:49:28.019Z,100155.91
2022-11-25T19:51:55.627Z,100160.44
2022-11-25T19:54:22.257Z,100156.78
2022-11-25T19:56:49.274Z,100167.91
2022-11-25T19:59:15.677Z,100161.47
2022-11-25T20:01:44.757Z,100169.72
2022-11-25T20:04:18.739Z,100162.38
2022-11-25T20:06:45.299Z,100162.38
2022-11-25T20:09:12.192Z,100167.91
2022-11-25T20:11:38.649Z,100174.13
2022-11-25T20:14:05.361Z,100174.13
2022-11-25T20:16:35.478Z,100169.78
2022-11-25T20:19:02.381Z,100165.16
2022-11-25T20:21:37.667Z,100164.78
2022-11-25T20:24:05.963Z,100173.72
2022-11-25T20:26:35.675Z,100175.94
2022-11-25T20:29:03.442Z,100180.84
2022-11-25T20:31:30.766Z,100185.44
2022-11-25T20:33:57.431Z,100181.97
2022-11-25T20:36:29.270Z,100181.41
2022-11-25T20:38:57.723Z,100196.56
2022-11-25T20:41:27.762Z,100193.31
2022-11-25T20:43:54.908Z,100202.22
2022-11-25T20:46:23.883Z,100208.66
2022-11-25T20:48:55.391Z,100198.78
2022-11-25T20:51:23.000Z,100203.66
2022-11-25T20:53:55.546Z,100204.78
2022-11-25T20:56:24.059Z,100207.34
2022-11-25T20:58:50.656Z,100207.44
2022-11-25T21:01:20.258Z,100201.09
2022-11-25T21:03:48.450Z,100208.56
2022-11-25T21:06:20.902Z,100211.13
2022-11-25T21:08:52.396Z,100223.22
2022-11-25T21:11:19.979Z,100230.00
2022-11-25T21:13:46.959Z,100229.25
2022-11-25T21:16:13.659Z,100226.66
2022-11-25T21:18:41.309Z,100235.75
2022-11-25T21:21:19.903Z,100238.22
2022-11-25T21:23:47.491Z,100246.38
2022-11-25T21:26:18.397Z,100242.03
2022-11-25T21:28:46.510Z,100244.13
2022-11-25T21:31:20.764Z,100241.69
2022-11-25T21:33:47.919Z,100240.31
2022-11-25T21:36:23.159Z,100245.25
2022-11-25T21:38:51.494Z,100250.31
2022-11-25T21:41:18.432Z,100254.47
2022-11-25T21:43:47.526Z,100259.09
2022-11-25T21:46:20.312Z,100268.94
2022-11-25T21:48:46.961Z,100276.97
2022-11-25T21:51:15.296Z,100280.13
2022-11-25T21:53:41.768Z,100280.84
2022-11-25T21:56:16.094Z,100277.03
2022-11-25T21:58:42.544Z,100281.97
2022-11-25T22:01:10.518Z,100284.53
2022-11-25T22:03:37.004Z,100290.06
2022-11-25T22:06:03.532Z,100294.25
2022-11-25T22:08:29.963Z,100295.53
2022-11-25T22:10:56.438Z,100299.00
2022-11-25T22:13:32.098Z,100300.72
2022-11-25T22:15:59.098Z,100302.97
2022-11-25T22:18:29.497Z,100313.59
2022-11-25T22:20:55.945Z,100315.00
2022-11-25T22:23:22.547Z,100315.22
2022-11-25T22:25:49.814Z,100309.13
2022-11-25T22:28:18.559Z,100301.16
2022-11-25T22:30:56.345Z,100306.34
2022-11-25T22:33:30.042Z,100309.09
2022-11-25T22:35:56.845Z,100314.41
2022-11-25T22:38:23.377Z,100317.63
2022-11-25T22:40:52.472Z,100308.31
2022-11-25T22:43:20.849Z,100316.34
2022-11-25T22:45:47.446Z,100330.38
2022-11-25T22:48:17.099Z,100338.91
2022-11-25T22:50:45.359Z,100332.16
2022-11-25T22:53:15.455Z,100339.31
2022-11-25T22:55:42.477Z,100332.19
2022-11-25T22:58:13.201Z,100339.81
2022-11-25T23:00:42.623Z,100337.41
2022-11-25T23:03:18.781Z,100340.69
2022-11-25T23:05:45.533Z,100348.13
2022-11-25T23:08:18.130Z,100350.41
2022-11-25T23:10:45.260Z,100357.81
2022-11-25T23:13:12.283Z,100352.72
2022-11-25T23:15:41.616Z,100357.44
2022-11-25T23:18:14.445Z,100354.47
2022-11-25T23:20:40.886Z,100359.72
2022-11-25T23:23:17.783Z,100364.94
2022-11-25T23:25:45.015Z,100367.00
2022-11-25T23:28:11.864Z,100359.25
2022-11-25T23:30:40.782Z,100366.88
2022-11-25T23:33:13.984Z,100370.94
2022-11-25T23:35:40.416Z,100372.97
2022-11-25T23:38:08.314Z,100379.88
2022-11-25T23:40:34.759Z,100386.97
2022-11-25T23:43:02.835Z,100387.28
2022-11-25T23:45:29.491Z,100398.63
2022-11-25T23:47:56.277Z,100397.72
2022-11-25T23:50:29.450Z,100396.31
2022-11-25T23:53:03.844Z,100402.41
2022-11-25T23:55:32.690Z,100407.38
2022-11-25T23:58:00.966Z,100414.00
